Time;durP1;ratioP1;P1;durP2;ratioP2;P2;SDS_P1;SDS_P2;PMS_P1;PMS_P2;Temp;Humidity;BMP_temperature;BMP_pressure;BME280_temperature;BME280_humidity;BME280_pressure;Samples;Min_cycle;Max_cycle;Signal;HPM_P1;HPM_P2
2022/09/21 00:00:46;;;;;;;1.85;0.88;;;;;;;18.67;50.94;97300.50;10552367;28;20083;-27
2022/09/21 00:05:47;;;;;;;1.37;0.60;;;;;;;18.65;50.93;97290.31;10556038;28;20482;-26
2022/09/21 00:10:50;;;;;;;0.73;0.50;;;;;;;18.59;51.06;97282.66;10550573;28;20302;-27
2022/09/21 00:15:51;;;;;;;0.88;0.70;;;;;;;18.66;51.12;97294.56;10547892;28;20032;-26
2022/09/21 00:20:51;;;;;;;1.13;0.70;;;;;;;18.64;51.24;97292.84;10554021;28;20024;-27
2022/09/21 00:25:52;;;;;;;1.23;0.40;;;;;;;18.60;51.06;97294.50;10551624;28;20026;-27
2022/09/21 00:30:52;;;;;;;1.97;0.50;;;;;;;18.63;54.09;97293.66;10559148;28;20024;-26
2022/09/21 00:35:52;;;;;;;1.20;0.60;;;;;;;18.66;54.07;97288.66;10554286;28;20046;-26
2022/09/21 00:40:53;;;;;;;1.00;0.67;;;;;;;18.66;53.51;97284.41;10554847;28;20088;-27
2022/09/21 00:46:01;;;;;;;0.47;0.33;;;;;;;18.67;51.16;97283.56;10551630;28;20105;-26
2022/09/21 00:51:06;;;;;;;1.38;0.65;;;;;;;18.63;51.27;97281.84;10550299;28;20033;-26
2022/09/21 00:56:09;;;;;;;1.38;0.52;;;;;;;18.67;51.24;97291.19;10552928;28;20058;-26
2022/09/21 01:01:11;;;;;;;0.75;0.43;;;;;;;18.66;51.32;97288.66;10547778;28;20031;-26
2022/09/21 01:06:17;;;;;;;0.73;0.40;;;;;;;18.65;51.18;97284.38;10551031;28;20040;-26
2022/09/21 01:11:33;;;;;;;0.90;0.50;;;;;;;18.65;51.26;97297.06;10552588;28;20408;-27
2022/09/21 01:16:39;;;;;;;0.75;0.38;;;;;;;18.65;51.34;97294.53;10553385;28;20114;-26
2022/09/21 01:21:59;;;;;;;0.80;0.43;;;;;;;18.62;51.28;97291.97;10534727;28;20637;-26
2022/09/21 01:27:31;;;;;;;0.85;0.38;;;;;;;18.64;51.40;97290.28;10554902;28;20043;-27
2022/09/21 01:32:41;;;;;;;2.30;1.00;;;;;;;18.62;54.11;97297.03;10550515;28;20112;-27
2022/09/21 01:37:49;;;;;;;1.40;0.45;;;;;;;18.63;54.13;97293.66;10544081;28;20039;-27
2022/09/21 01:42:52;;;;;;;1.15;0.50;;;;;;;18.66;53.56;97293.72;10554557;28;20477;-27
2022/09/21 01:47:55;;;;;;;0.88;0.50;;;;;;;18.63;51.73;97288.59;10552727;28;20024;-26
2022/09/21 01:53:12;;;;;;;0.75;0.30;;;;;;;18.68;51.69;97297.09;10550021;28;20099;-27
2022/09/21 01:58:16;;;;;;;0.70;0.47;;;;;;;18.66;51.56;97301.31;10553217;28;20032;-27
2022/09/21 02:03:26;;;;;;;2.63;0.55;;;;;;;18.64;51.67;97291.16;10544394;28;20438;-28
2022/09/21 02:08:30;;;;;;;0.50;0.40;;;;;;;18.65;51.65;97292.00;10545256;28;20119;-26
2022/09/21 02:13:35;;;;;;;1.17;0.50;;;;;;;18.64;51.47;97293.69;10551850;28;20028;-26
2022/09/21 02:19:06;;;;;;;0.47;0.30;;;;;;;18.64;51.95;97288.63;10553151;28;20069;-27
2022/09/21 02:24:33;;;;;;;0.73;0.40;;;;;;;18.63;51.54;97284.41;10537688;28;20032;-27
2022/09/21 02:29:45;;;;;;;0.68;0.50;;;;;;;18.63;51.67;97292.00;10548792;28;20033;-27
2022/09/21 02:34:57;;;;;;;1.25;0.52;;;;;;;18.62;53.76;97290.31;10540307;28;20028;-27
2022/09/21 02:40:14;;;;;;;1.08;0.55;;;;;;;18.66;54.23;97286.09;10552792;28;20036;-27
2022/09/21 02:45:21;;;;;;;1.55;0.50;;;;;;;18.74;53.60;97289.56;10556500;28;20028;-27
2022/09/21 02:50:24;;;;;;;;;;;;;;;18.77;52.95;97287.03;10562331;28;20661;-26
2022/09/21 02:55:26;;;;;;;1.05;0.70;;;;;;;18.78;52.86;97283.66;10554724;28;19916;-27
2022/09/21 03:00:26;;;;;;;0.60;0.50;;;;;;;18.77;52.64;97287.03;10560504;28;20082;-28
2022/09/21 03:05:28;;;;;;;0.93;0.43;;;;;;;18.79;52.00;97286.22;10559718;28;20136;-26
2022/09/21 03:10:28;;;;;;;1.13;0.60;;;;;;;18.81;52.19;97278.59;10551106;28;20020;-27
2022/09/21 03:15:29;;;;;;;0.47;0.40;;;;;;;18.81;51.87;97278.59;10552057;28;20028;-27
2022/09/21 03:20:33;;;;;;;0.33;0.30;;;;;;;18.78;52.16;97284.53;10560166;28;20049;-27
2022/09/21 03:25:33;;;;;;;2.75;0.60;;;;;;;18.78;52.10;97273.50;10551410;28;20028;-26
2022/09/21 03:30:34;;;;;;;0.60;0.37;;;;;;;18.78;52.10;97283.66;10556750;28;20483;-27
2022/09/21 03:35:34;;;;;;;0.85;0.43;;;;;;;18.79;52.17;97285.34;10560150;28;20296;-28
2022/09/21 03:40:35;;;;;;;0.67;0.30;;;;;;;18.85;52.56;97287.94;10560330;28;20039;-27
2022/09/21 03:45:36;;;;;;;0.40;0.40;;;;;;;18.89;52.40;97287.13;10551642;28;20028;-27
2022/09/21 03:50:37;;;;;;;2.10;0.60;;;;;;;18.88;52.23;97295.56;10551118;28;20035;-28
2022/09/21 03:55:37;;;;;;;1.15;0.40;;;;;;;18.83;52.19;97293.00;10543494;28;20024;-27
2022/09/21 04:00:38;;;;;;;3.03;0.57;;;;;;;18.90;52.20;97291.34;10540147;28;20028;-27
2022/09/21 04:05:38;;;;;;;0.90;0.60;;;;;;;18.90;51.53;97289.66;10539683;28;20023;-26
2022/09/21 04:10:41;;;;;;;2.28;0.65;;;;;;;18.87;51.63;97291.34;10534201;28;20035;-27
2022/09/21 04:15:41;;;;;;;0.65;0.50;;;;;;;18.89;51.04;97290.50;10530249;28;20028;-26
2022/09/21 04:20:41;;;;;;;1.33;0.50;;;;;;;18.87;51.15;97291.34;10528514;28;20024;-27
2022/09/21 04:25:42;;;;;;;0.67;0.60;;;;;;;18.82;51.38;97281.16;10531262;28;20777;-26
2022/09/21 04:30:43;;;;;;;1.88;0.90;;;;;;;18.87;50.95;97286.25;10526516;28;20038;-27
2022/09/21 04:35:43;;;;;;;2.13;1.03;;;;;;;18.81;50.03;97288.75;10526354;28;20523;-27
2022/09/21 04:40:43;;;;;;;1.07;0.73;;;;;;;18.80;50.12;97287.03;10521283;28;20036;-26
2022/09/21 04:45:44;;;;;;;2.93;1.30;;;;;;;18.37;49.31;97282.44;10519810;28;20035;-27
2022/09/21 04:50:48;;;;;;;2.28;1.10;;;;;;;18.32;47.85;97289.19;10523112;28;20047;-27
2022/09/21 04:55:49;;;;;;;4.10;1.50;;;;;;;18.43;47.05;97290.97;10518704;28;20036;-26
2022/09/21 05:00:56;;;;;;;4.15;1.35;;;;;;;18.63;47.70;97291.13;10531964;28;20028;-27
2022/09/21 05:05:57;;;;;;;4.78;1.10;;;;;;;18.74;49.40;97292.94;10520435;28;21006;-27
2022/09/21 05:10:58;;;;;;;2.72;1.00;;;;;;;18.80;49.05;97302.28;10530199;28;20045;-27
2022/09/21 05:15:58;;;;;;;7.03;1.30;;;;;;;18.83;50.10;97304.84;10530066;28;20457;-27
2022/09/21 05:21:01;;;;;;;4.83;1.20;;;;;;;18.78;49.85;97299.75;10544546;28;20068;-26
2022/09/21 05:26:01;;;;;;;2.15;1.23;;;;;;;18.73;49.35;97303.06;10555330;28;20032;-27
2022/09/21 05:31:18;;;;;;;2.63;0.90;;;;;;;18.78;50.61;97314.09;10550862;28;20445;-27
2022/09/21 05:36:57;;;;;;;6.30;1.83;;;;;;;18.78;50.26;97301.41;10548985;28;20048;-26
2022/09/21 05:41:58;;;;;;;1.45;1.10;;;;;;;18.78;50.38;97303.94;10543532;28;20039;-27
2022/09/21 05:47:33;;;;;;;7.25;1.52;;;;;;;18.82;50.40;97308.22;10545471;28;20039;-27
2022/09/21 05:52:46;;;;;;;4.82;1.20;;;;;;;18.83;51.94;97312.47;10550200;28;20416;-26
2022/09/21 05:57:47;;;;;;;2.70;1.08;;;;;;;18.86;50.66;97315.00;10540552;28;20036;-27
2022/09/21 06:03:25;;;;;;;3.45;1.10;;;;;;;18.87;50.76;97311.63;10551637;28;20395;-27
2022/09/21 06:08:25;;;;;;;2.97;1.08;;;;;;;18.84;50.70;97320.06;10540094;28;20040;-27
2022/09/21 06:13:26;;;;;;;2.97;0.80;;;;;;;18.83;51.01;97315.00;10548754;28;20394;-27
2022/09/21 06:18:26;;;;;;;3.13;0.90;;;;;;;18.82;50.38;97311.59;10559615;28;20024;-26
2022/09/21 06:23:26;;;;;;;6.50;1.50;;;;;;;18.82;50.97;97314.13;10555132;28;20040;-27
2022/09/21 06:28:27;;;;;;;1.40;0.90;;;;;;;18.83;51.06;97315.81;10562345;28;20036;-26
2022/09/21 06:33:27;;;;;;;2.93;0.70;;;;;;;18.84;51.00;97314.16;10554103;28;20028;-26
2022/09/21 06:38:28;;;;;;;1.40;1.03;;;;;;;18.83;51.16;97310.75;10559219;28;20302;-27
2022/09/21 06:43:29;;;;;;;4.00;1.30;;;;;;;18.84;51.03;97307.38;10563849;28;20277;-27
2022/09/21 06:48:32;;;;;;;2.83;1.02;;;;;;;18.86;51.12;97309.94;10560972;28;20062;-27
2022/09/21 06:53:33;;;;;;;2.30;0.95;;;;;;;18.81;51.25;97309.03;10557285;28;20067;-26
2022/09/21 06:58:34;;;;;;;1.42;0.80;;;;;;;18.85;51.71;97315.84;10559208;28;20077;-27
2022/09/21 07:03:35;;;;;;;1.98;0.98;;;;;;;18.88;51.23;97318.41;10557490;28;20453;-27
2022/09/21 07:08:38;;;;;;;2.25;0.90;;;;;;;18.84;51.33;97315.00;10550463;28;20028;-27
2022/09/21 07:13:40;;;;;;;3.95;1.08;;;;;;;18.84;51.62;97319.22;10554314;28;20036;-26
2022/09/21 07:18:41;;;;;;;1.92;0.68;;;;;;;18.87;51.30;97311.63;10547605;28;20526;-26
2022/09/21 07:23:42;;;;;;;0.85;0.65;;;;;;;18.84;51.19;97304.00;10560811;28;20028;-27
2022/09/21 07:28:42;;;;;;;4.80;0.80;;;;;;;18.90;51.31;97309.97;10558290;28;20036;-27
2022/09/21 07:33:45;;;;;;;1.15;0.63;;;;;;;18.92;51.33;97318.44;10561027;28;20300;-27
2022/09/21 07:38:46;;;;;;;2.30;0.82;;;;;;;18.92;51.38;97298.13;10557249;28;20545;-27
2022/09/21 07:43:46;;;;;;;2.50;0.90;;;;;;;18.92;51.42;97303.22;10557311;28;20027;-27
2022/09/21 07:48:46;;;;;;;1.70;0.80;;;;;;;18.94;51.51;97310.84;10553596;28;20413;-27
2022/09/21 07:53:47;;;;;;;1.77;0.73;;;;;;;18.93;51.78;97293.94;10552828;28;20070;-28
2022/09/21 07:59:05;;;;;;;2.70;0.80;;;;;;;18.92;51.49;97299.84;10557032;28;20527;-26
2022/09/21 08:04:08;;;;;;;0.90;0.80;;;;;;;18.93;51.76;97299.00;10552605;28;20023;-26
2022/09/21 08:09:08;;;;;;;1.85;0.80;;;;;;;18.94;51.47;97303.22;10548964;28;20056;-26
2022/09/21 08:14:09;;;;;;;0.87;0.50;;;;;;;18.88;51.28;97295.56;10551238;28;20060;-27
2022/09/21 08:19:09;;;;;;;1.90;0.68;;;;;;;18.93;51.53;97294.75;10555899;28;20077;-26
2022/09/21 08:24:10;;;;;;;0.73;0.63;;;;;;;18.92;51.65;97299.84;10549682;28;20067;-26
2022/09/21 08:29:13;;;;;;;1.00;0.70;;;;;;;18.91;51.95;97291.38;10555165;28;20032;-27
2022/09/21 08:34:14;;;;;;;1.75;0.70;;;;;;;18.93;51.44;97288.84;10554167;28;20088;-26
2022/09/21 08:39:15;;;;;;;0.80;0.55;;;;;;;18.92;51.52;97290.53;10554553;28;20031;-28
2022/09/21 08:44:15;;;;;;;1.37;0.80;;;;;;;18.93;51.75;97296.47;10556323;28;20035;-27
2022/09/21 08:49:24;;;;;;;0.85;0.50;;;;;;;18.92;52.05;97287.16;10546020;28;20097;-27
2022/09/21 08:54:33;;;;;;;2.25;0.88;;;;;;;18.87;51.92;97281.19;10552560;28;20035;-27
2022/09/21 08:59:34;;;;;;;0.88;0.60;;;;;;;18.84;52.46;97288.78;10556038;28;20055;-27
2022/09/21 09:04:51;;;;;;;1.77;0.65;;;;;;;18.91;51.67;97290.53;10555738;28;20062;-26
2022/09/21 09:10:36;;;;;;;0.80;0.80;;;;;;;18.91;51.96;97285.47;10543982;28;20062;-27
2022/09/21 09:15:48;;;;;;;1.02;0.50;;;;;;;18.90;51.83;97284.59;10422499;28;20042;-27
2022/09/21 09:20:56;;;;;;;0.90;0.47;;;;;;;18.90;51.86;97278.66;10520208;28;20044;-27
2022/09/21 09:26:03;;;;;;;1.05;0.73;;;;;;;18.83;51.91;97266.78;10553107;28;20524;-27
2022/09/21 09:31:15;;;;;;;1.27;0.90;;;;;;;18.89;52.14;97282.03;10547302;28;20063;-27
2022/09/21 09:36:16;;;;;;;1.08;0.80;;;;;;;18.87;51.92;97273.56;10536326;28;20074;-26
2022/09/21 09:41:34;;;;;;;0.75;0.55;;;;;;;18.84;51.81;97263.41;10555211;28;20108;-27
2022/09/21 09:46:50;;;;;;;1.30;0.65;;;;;;;18.89;51.98;97257.53;10562686;28;20031;-27
2022/09/21 09:51:51;;;;;;;1.38;0.63;;;;;;;18.87;51.80;97258.34;10543380;28;20143;-27
2022/09/21 09:56:51;;;;;;;0.30;0.30;;;;;;;18.88;52.07;97257.50;10555786;28;20023;-27
2022/09/21 10:02:03;;;;;;;0.73;0.50;;;;;;;18.89;52.10;97256.66;10546542;28;20031;-28
2022/09/21 10:07:04;;;;;;;0.88;0.68;;;;;;;18.86;51.87;97244.84;10533515;28;20027;-27
2022/09/21 10:12:18;;;;;;;1.30;0.50;;;;;;;18.88;51.72;97244.81;10555195;28;20033;-26
2022/09/21 10:17:20;;;;;;;3.78;1.45;;;;;;;18.84;51.88;97240.59;10550166;28;20028;-27
2022/09/21 10:22:21;;;;;;;2.00;0.93;;;;;;;18.84;51.19;97238.03;10539706;28;20024;-27
2022/09/21 10:27:26;;;;;;;1.50;0.90;;;;;;;18.84;51.76;97230.44;10554441;28;20111;-26
2022/09/21 10:32:28;;;;;;;1.73;0.88;;;;;;;18.85;51.75;97221.97;10549811;28;20226;-26
2022/09/21 10:37:36;;;;;;;7.18;1.40;;;;;;;18.77;49.61;97223.63;10548523;28;20523;-27
2022/09/21 10:42:41;;;;;;;3.22;2.05;;;;;;;18.83;51.32;97216.06;10552931;28;20474;-26
2022/09/21 10:47:45;;;;;;;6.22;2.17;;;;;;;18.86;51.80;97218.59;10539794;28;20110;-27
2022/09/21 10:52:47;;;;;;;3.53;1.08;;;;;;;18.80;51.81;97205.88;10550004;28;20028;-26
2022/09/21 10:57:49;;;;;;;1.60;0.93;;;;;;;18.84;51.94;97202.53;10552263;28;20039;-27
2022/09/21 11:02:50;;;;;;;2.92;0.90;;;;;;;18.84;52.12;97197.47;10551500;28;20028;-26
2022/09/21 11:07:58;;;;;;;4.10;1.42;;;;;;;18.85;52.94;97201.69;10552011;28;20412;-27
2022/09/21 11:13:16;;;;;;;20.77;2.03;;;;;;;18.88;52.78;97200.03;10557521;28;20039;-28
2022/09/21 11:18:35;;;;;;;7.07;2.65;;;;;;;18.87;52.32;97197.47;10555877;28;20036;-27
2022/09/21 11:23:46;;;;;;;12.20;1.40;;;;;;;18.85;52.34;97187.28;10545638;28;20077;-27
2022/09/21 11:29:09;;;;;;;6.35;1.50;;;;;;;18.86;52.28;97190.69;10538585;28;20047;-27
2022/09/21 11:34:21;;;;;;;4.05;1.50;;;;;;;18.86;52.34;97190.69;10543935;28;20551;-26
2022/09/21 11:39:48;;;;;;;5.30;1.38;;;;;;;18.88;52.50;97181.41;10553558;28;20032;-27
2022/09/21 11:44:56;;;;;;;12.40;2.25;;;;;;;18.89;52.32;97170.41;10541556;28;20024;-27
2022/09/21 11:50:39;;;;;;;7.78;2.40;;;;;;;18.91;52.44;97163.69;10547407;28;20484;-28
2022/09/21 11:55:59;;;;;;;7.47;1.90;;;;;;;18.89;52.37;97153.50;10498077;28;20456;-26
2022/09/21 12:01:09;;;;;;;4.38;1.33;;;;;;;18.90;52.44;97151.81;10549187;28;20407;-28
2022/09/21 12:06:47;;;;;;;18.80;1.70;;;;;;;18.87;52.69;97147.59;10543743;28;20033;-26
2022/09/21 12:12:00;;;;;;;2.42;1.67;;;;;;;18.95;52.65;97145.06;10545013;28;20074;-27
2022/09/21 12:17:23;;;;;;;7.28;1.95;;;;;;;18.94;52.56;97140.84;10542853;27;20462;-27
2022/09/21 12:22:37;;;;;;;4.65;1.58;;;;;;;18.91;52.44;97134.06;10548783;28;20475;-27
2022/09/21 12:27:57;;;;;;;12.85;2.33;;;;;;;18.85;53.18;97108.66;10543806;28;20035;-26
2022/09/21 12:33:24;;;;;;;7.85;2.10;;;;;;;18.92;52.13;97120.53;10545125;28;20036;-26
2022/09/21 12:38:30;;;;;;;;;;;;;;;18.93;52.68;97127.28;10543231;28;20052;-27
2022/09/21 12:43:47;;;;;;;9.77;4.22;;;;;;;18.90;52.84;97111.22;10551670;28;19919;-27
2022/09/21 12:48:48;;;;;;;10.40;2.80;;;;;;;18.91;52.68;97118.84;10544678;28;20059;-27
2022/09/21 12:53:52;;;;;;;6.75;2.17;;;;;;;18.89;53.59;97117.13;10543721;28;20406;-27
2022/09/21 12:59:42;;;;;;;8.07;1.90;;;;;;;18.92;53.71;97120.53;10554440;28;20054;-26
2022/09/21 13:04:52;;;;;;;10.23;1.63;;;;;;;18.93;53.90;97121.38;10477998;28;20046;-26
2022/09/21 13:09:52;;;;;;;7.25;2.78;;;;;;;18.93;54.21;97117.16;10538833;28;20036;-26
2022/09/21 13:15:31;;;;;;;9.53;2.87;;;;;;;18.93;54.22;97117.16;10550413;28;20054;-27
2022/09/21 13:20:38;;;;;;;7.50;2.05;;;;;;;18.92;53.76;97107.00;10546981;28;20412;-27
2022/09/21 13:25:39;;;;;;;13.85;1.98;;;;;;;18.91;53.92;97107.84;10514767;28;20024;-27
2022/09/21 13:30:46;;;;;;;11.98;2.15;;;;;;;18.88;53.66;97107.81;10535299;28;20020;-26
2022/09/21 13:35:49;;;;;;;8.50;2.25;;;;;;;18.87;53.72;97107.00;10543377;28;20077;-26
2022/09/21 13:41:00;;;;;;;4.03;1.45;;;;;;;18.85;53.79;97102.75;10553525;28;20027;-26
2022/09/21 13:46:00;;;;;;;5.97;1.98;;;;;;;18.84;53.80;97106.13;10554234;28;20034;-27
2022/09/21 13:51:07;;;;;;;6.73;1.40;;;;;;;18.87;53.65;97104.47;10547506;28;20039;-27
2022/09/21 13:56:17;;;;;;;9.93;2.05;;;;;;;18.84;53.41;97096.81;10548256;28;20036;-27
2022/09/21 14:01:23;;;;;;;6.45;1.88;;;;;;;18.87;53.93;97103.59;10546737;28;20031;-27
2022/09/21 14:06:29;;;;;;;10.32;2.00;;;;;;;18.90;53.62;97094.31;10540790;28;20025;-26
2022/09/21 14:11:48;;;;;;;16.38;2.88;;;;;;;19.00;55.31;97101.09;10546190;28;20036;-26
2022/09/21 14:16:51;;;;;;;33.35;5.20;;;;;;;19.03;55.80;97093.53;10534045;28;20479;-27
2022/09/21 14:22:06;;;;;;;12.43;2.03;;;;;;;18.94;53.61;97097.72;10540215;28;20051;-27
2022/09/21 14:27:27;;;;;;;20.55;2.38;;;;;;;18.92;53.82;97099.41;10539873;28;20031;-27
2022/09/21 14:32:42;;;;;;;7.35;1.88;;;;;;;18.90;53.67;97095.97;10537430;28;20036;-26
2022/09/21 14:37:54;;;;;;;9.65;2.15;;;;;;;18.90;53.74;97093.44;10544102;28;20031;-27
2022/09/21 14:42:59;;;;;;;11.13;2.78;;;;;;;18.89;53.52;97100.22;10538134;28;20031;-27
2022/09/21 14:48:10;;;;;;;6.95;1.70;;;;;;;18.87;53.61;97098.53;10561410;28;20031;-27
2022/09/21 14:53:54;;;;;;;4.95;1.27;;;;;;;18.87;53.43;97088.38;10541189;28;20027;-26
2022/09/21 14:59:20;;;;;;;6.15;1.40;;;;;;;18.85;53.84;97090.06;10554802;28;20594;-26
2022/09/21 15:04:29;;;;;;;6.60;1.83;;;;;;;18.85;53.80;97092.59;10548868;28;20119;-26
2022/09/21 15:15:26;;;;;;;10.85;1.95;;;;;;;18.89;54.54;97100.22;10545730;28;20040;-27
2022/09/21 15:20:28;;;;;;;7.25;1.73;;;;;;;18.88;54.26;97097.69;10525765;28;20024;-27
2022/09/21 15:25:31;;;;;;;5.75;1.75;;;;;;;18.86;53.88;97095.16;10552602;28;20027;-26
2022/09/21 15:30:44;;;;;;;3.88;1.63;;;;;;;18.87;53.65;97090.91;10552715;28;20039;-27
2022/09/21 15:35:46;;;;;;;4.43;1.48;;;;;;;18.85;53.59;97095.13;10553161;28;20035;-26
2022/09/21 15:40:46;;;;;;;7.45;1.67;;;;;;;18.85;53.80;97097.66;10558441;28;20076;-27
2022/09/21 15:45:57;;;;;;;6.40;1.42;;;;;;;18.80;54.14;97092.59;10545885;28;20535;-27
2022/09/21 15:51:27;;;;;;;3.28;1.35;;;;;;;18.82;53.83;97098.50;10553984;28;20036;-27
2022/09/21 15:56:28;;;;;;;4.63;1.42;;;;;;;18.79;53.83;97088.34;10541042;28;20079;-28
2022/09/21 16:01:30;;;;;;;5.93;1.30;;;;;;;18.86;51.08;97101.91;10543503;28;20027;-27
2022/09/21 16:06:43;;;;;;;4.63;1.50;;;;;;;18.87;53.53;97106.13;10530429;28;20036;-27
2022/09/21 16:11:44;;;;;;;7.95;1.88;;;;;;;18.86;53.65;97104.44;10526217;28;20444;-27
2022/09/21 16:17:23;;;;;;;7.70;1.65;;;;;;;18.93;54.82;97113.78;10554314;28;20069;-27
2022/09/21 16:22:38;;;;;;;12.68;3.10;;;;;;;18.94;56.00;97107.84;10543021;28;20066;-26
2022/09/21 16:27:55;;;;;;;4.43;1.60;;;;;;;18.89;53.95;97110.38;10534036;28;20093;-28
2022/09/21 16:32:55;;;;;;;6.55;1.33;;;;;;;18.86;54.47;97120.53;10535903;28;20032;-26
2022/09/21 16:37:59;;;;;;;5.80;1.30;;;;;;;18.86;53.72;97124.72;10544329;28;20480;-26
2022/09/21 16:42:59;;;;;;;4.05;1.48;;;;;;;18.82;53.51;97126.41;10529387;28;20123;-26
2022/09/21 16:48:03;;;;;;;4.10;1.45;;;;;;;18.80;53.51;97130.63;10525281;28;20032;-27
2022/09/21 17:08:28;;;;;;;4.32;1.10;;;;;;;19.05;53.19;97145.13;10632641;27;20380;-29
2022/09/21 17:13:30;;;;;;;8.00;2.55;;;;;;;19.04;55.74;97140.03;10624646;27;20523;-29
2022/09/21 17:18:31;;;;;;;8.10;1.27;;;;;;;19.04;55.97;97145.13;10630878;27;20461;-29
2022/09/21 17:23:31;;;;;;;7.13;1.30;;;;;;;18.97;54.03;97143.38;10621744;27;20061;-29
2022/09/21 17:28:32;;;;;;;4.67;1.50;;;;;;;18.93;53.46;97162.00;10605204;27;20457;-29
2022/09/21 17:33:32;;;;;;;8.48;1.90;;;;;;;18.92;53.71;97170.44;10630433;27;20297;-29
2022/09/21 17:38:36;;;;;;;3.75;1.50;;;;;;;18.89;53.50;97163.66;10608088;27;20027;-29
2022/09/21 17:43:56;;;;;;;4.53;1.55;;;;;;;18.88;53.92;97171.25;10605503;27;20062;-28
2022/09/21 17:48:57;;;;;;;5.07;1.30;;;;;;;18.83;53.64;97178.00;10621679;27;20031;-29
2022/09/21 17:53:58;;;;;;;6.15;1.60;;;;;;;18.86;53.81;97185.63;10607680;27;20031;-29
2022/09/21 17:59:04;;;;;;;4.72;1.40;;;;;;;18.84;53.80;97178.00;10605402;27;20085;-29
2022/09/21 18:04:05;;;;;;;4.07;1.00;;;;;;;18.82;53.73;97189.81;10613191;27;20024;-29
2022/09/21 18:09:08;;;;;;;6.00;1.35;;;;;;;18.83;54.29;97188.16;10584450;27;20357;-29
2022/09/21 18:14:29;;;;;;;8.95;1.90;;;;;;;18.91;56.53;97196.66;10578476;27;20712;-30
2022/09/21 18:20:01;;;;;;;5.88;1.67;;;;;;;18.94;54.72;97201.75;10589481;27;20055;-29
2022/09/21 18:25:13;;;;;;;2.17;0.95;;;;;;;18.92;54.70;97193.28;10587998;27;20078;-30
2022/09/21 18:30:15;;;;;;;4.22;1.17;;;;;;;18.92;54.75;97205.97;10590324;27;20107;-29
2022/09/21 18:35:28;;;;;;;2.33;1.00;;;;;;;18.91;54.21;97210.19;10591555;27;20084;-29
2022/09/21 18:40:40;;;;;;;2.67;1.10;;;;;;;18.90;53.96;97215.22;10585446;27;20107;-29
2022/09/21 18:45:46;;;;;;;3.78;1.25;;;;;;;18.88;54.02;97216.91;10573701;27;20027;-30
2022/09/21 18:50:53;;;;;;;4.63;1.40;;;;;;;18.85;54.02;97222.81;10571646;27;20027;-30
2022/09/21 18:55:53;;;;;;;2.67;1.20;;;;;;;18.81;54.18;97223.66;10571405;27;20033;-30
2022/09/21 19:00:54;;;;;;;3.80;1.02;;;;;;;18.81;53.90;97227.84;10597720;27;20039;-29
2022/09/21 19:06:03;;;;;;;5.18;1.05;;;;;;;18.84;53.93;97227.91;10583254;27;20046;-29
2022/09/21 19:11:14;;;;;;;3.80;0.98;;;;;;;18.87;56.35;97233.84;10575566;27;20032;-29
2022/09/21 19:16:36;;;;;;;3.22;1.77;;;;;;;18.91;56.01;97229.63;10589928;27;20028;-29
2022/09/21 19:21:44;;;;;;;5.80;1.50;;;;;;;18.90;55.22;97235.53;10574486;27;20035;-29
2022/09/21 19:27:03;;;;;;;4.47;1.00;;;;;;;18.86;54.50;97236.38;10584134;27;20039;-30
2022/09/21 19:32:14;;;;;;;4.28;1.10;;;;;;;18.87;54.46;97231.31;10597388;27;20032;-29
2022/09/21 19:37:14;;;;;;;2.85;0.70;;;;;;;18.86;54.23;97234.69;10593980;27;20135;-29
2022/09/21 19:42:37;;;;;;;2.97;1.40;;;;;;;18.84;54.65;97238.03;10592100;27;20039;-30
2022/09/21 19:47:51;;;;;;;3.22;1.05;;;;;;;18.87;53.86;97240.59;10584952;27;20054;-29
2022/09/21 19:59:41;;;;;;;2.92;0.90;;;;;;;18.82;54.01;97239.72;10589191;27;20118;-30
2022/09/21 20:03:40;;;;;;;2.88;1.02;;;;;;;18.80;53.98;97233.78;10579513;27;20034;-29
2022/09/21 20:09:03;;;;;;;2.72;1.20;;;;;;;18.85;53.97;97243.09;10586706;27;20755;-29
2022/09/21 20:14:31;;;;;;;2.70;0.90;;;;;;;18.92;55.52;97237.25;10583665;27;20039;-30
2022/09/21 20:19:45;;;;;;;4.63;1.63;;;;;;;18.91;54.46;97229.63;10582668;27;20411;-29
2022/09/21 20:24:48;;;;;;;3.40;0.85;;;;;;;18.86;55.46;97241.44;10590699;27;20038;-29
2022/09/21 20:29:49;;;;;;;1.90;1.00;;;;;;;18.82;54.96;97234.66;10574384;27;20434;-29
2022/09/21 20:34:49;;;;;;;3.47;0.90;;;;;;;18.78;55.78;97232.91;10591310;27;20042;-29
2022/09/21 20:39:49;;;;;;;0.87;0.60;;;;;;;18.74;54.32;97221.06;10588420;27;20361;-30
2022/09/21 20:44:50;;;;;;;2.90;1.20;;;;;;;18.76;54.32;97230.38;10585331;27;20068;-30
2022/09/21 20:49:51;;;;;;;1.70;1.30;;;;;;;18.76;54.50;97229.53;10592439;27;20031;-29
2022/09/21 20:54:51;;;;;;;3.37;0.80;;;;;;;18.77;55.19;97243.91;10583217;28;20046;-29
2022/09/21 20:59:51;;;;;;;1.37;0.77;;;;;;;18.78;54.61;97243.94;10582993;28;20046;-29
2022/09/21 21:04:52;;;;;;;6.30;1.40;;;;;;;18.78;54.74;97243.94;10585932;28;20080;-30
2022/09/21 21:09:52;;;;;;;3.47;1.00;;;;;;;18.81;55.77;97241.41;10590477;28;20414;-29
2022/09/21 21:14:53;;;;;;;4.40;1.30;;;;;;;18.83;56.29;97246.50;10580371;28;20290;-29
2022/09/21 21:19:53;;;;;;;4.47;0.80;;;;;;;18.82;54.51;97247.34;10588077;28;20107;-29
2022/09/21 21:24:53;;;;;;;1.60;1.03;;;;;;;18.74;55.79;97249.81;10588352;28;20024;-30
2022/09/21 21:29:54;;;;;;;1.60;0.90;;;;;;;18.74;55.08;97248.97;10573471;28;20042;-31
2022/09/21 21:34:54;;;;;;;2.28;1.00;;;;;;;18.71;55.38;97241.31;10587395;28;20078;-29
2022/09/21 21:39:58;;;;;;;6.20;0.80;;;;;;;18.73;55.90;97247.25;10593381;27;20039;-29
2022/09/21 21:44:58;;;;;;;1.27;0.90;;;;;;;18.72;55.85;97254.03;10593650;27;20277;-29
2022/09/21 21:49:58;;;;;;;3.23;0.80;;;;;;;18.71;55.50;97237.13;10600495;27;20027;-29
2022/09/21 21:54:59;;;;;;;2.43;0.90;;;;;;;18.74;54.60;97248.97;10591884;27;20051;-29
2022/09/21 21:59:59;;;;;;;2.93;0.87;;;;;;;18.74;54.29;97246.44;10590768;27;20059;-29
2022/09/21 22:04:59;;;;;;;1.90;1.00;;;;;;;18.76;54.53;97242.22;10576204;27;20036;-29
2022/09/21 22:10:00;;;;;;;3.60;1.20;;;;;;;18.77;56.13;97231.22;10552245;28;20031;-29
2022/09/21 22:15:01;;;;;;;1.40;0.80;;;;;;;18.76;56.06;97235.44;10544274;28;20293;-29
2022/09/21 22:20:02;;;;;;;3.90;0.98;;;;;;;18.78;54.82;97238.00;10547497;28;20039;-29
2022/09/21 22:25:02;;;;;;;2.80;0.75;;;;;;;18.75;55.78;97232.91;10549319;28;20564;-30
2022/09/21 22:30:03;;;;;;;2.55;1.10;;;;;;;18.72;55.76;97237.94;10543534;28;20036;-29
2022/09/21 22:35:04;;;;;;;1.08;0.77;;;;;;;18.67;55.40;97219.31;10551720;28;20133;-29
2022/09/21 22:40:05;;;;;;;3.17;0.70;;;;;;;18.69;55.59;97227.78;10547534;28;20292;-29
2022/09/21 22:45:06;;;;;;;3.85;1.67;;;;;;;18.70;55.19;97227.81;10557466;28;20031;-30
2022/09/21 22:50:07;;;;;;;1.70;0.77;;;;;;;18.63;55.40;97208.31;10536157;28;20036;-29
2022/09/21 22:55:07;;;;;;;1.52;0.73;;;;;;;18.69;55.40;97222.72;10551642;28;20081;-29
2022/09/21 23:00:09;;;;;;;3.08;1.02;;;;;;;18.68;55.35;97215.94;10548725;28;20483;-29
2022/09/21 23:05:09;;;;;;;1.67;1.02;;;;;;;18.69;55.28;97222.72;10553708;27;20197;-29
2022/09/21 23:10:09;;;;;;;2.83;0.90;;;;;;;18.73;56.11;97214.28;10583277;27;20042;-29
2022/09/21 23:15:10;;;;;;;1.63;0.83;;;;;;;18.68;55.97;97205.81;10589209;27;20107;-29
2022/09/21 23:20:11;;;;;;;2.17;0.93;;;;;;;18.73;55.57;97205.00;10588796;27;20482;-29
2022/09/21 23:25:11;;;;;;;1.25;0.80;;;;;;;18.70;55.45;97201.59;10589260;27;20107;-30
2022/09/21 23:30:11;;;;;;;2.00;0.80;;;;;;;18.67;55.64;97201.56;10581930;27;20031;-30
2022/09/21 23:35:12;;;;;;;2.43;0.63;;;;;;;18.67;55.44;97201.56;10592516;27;20040;-29
2022/09/21 23:40:12;;;;;;;3.57;0.80;;;;;;;18.70;55.05;97196.50;10594238;27;20481;-29
2022/09/21 23:45:12;;;;;;;1.55;0.80;;;;;;;18.82;55.06;97199.13;10589624;27;20487;-29
2022/09/21 23:50:13;;;;;;;1.00;0.60;;;;;;;18.80;55.00;97186.44;10589118;27;20088;-29
2022/09/21 23:55:13;;;;;;;2.23;0.70;;;;;;;18.87;54.63;97193.25;10586487;27;20637;-30
